sensor_id;sensor_type;location;lat;lon;timestamp;temperature;humidity
47813;DHT22;34221;45.296;9.516;2023-06-10T00:00:02;23.00;90.70
47813;DHT22;34221;45.296;9.516;2023-06-10T00:00:27;23.00;90.70
47813;DHT22;34221;45.296;9.516;2023-06-10T00:00:42;23.00;90.70
47813;DHT22;34221;45.296;9.516;2023-06-10T00:00:57;23.00;91.00
47813;DHT22;34221;45.296;9.516;2023-06-10T00:01:12;23.00;90.80
47813;DHT22;34221;45.296;9.516;2023-06-10T00:01:27;23.00;90.70
47813;DHT22;34221;45.296;9.516;2023-06-10T00:01:42;23.00;90.70
47813;DHT22;34221;45.296;9.516;2023-06-10T00:02:01;23.00;90.70
47813;DHT22;34221;45.296;9.516;2023-06-10T00:02:16;23.00;90.70
47813;DHT22;34221;45.296;9.516;2023-06-10T00:02:31;23.00;90.70
47813;DHT22;34221;45.296;9.516;2023-06-10T00:02:46;23.00;90.70
47813;DHT22;34221;45.296;9.516;2023-06-10T00:03:02;23.00;90.70
47813;DHT22;34221;45.296;9.516;2023-06-10T00:03:17;23.00;90.90
47813;DHT22;34221;45.296;9.516;2023-06-10T00:03:32;23.00;90.70
47813;DHT22;34221;45.296;9.516;2023-06-10T00:03:47;23.00;90.70
47813;DHT22;34221;45.296;9.516;2023-06-10T00:04:02;22.90;90.70
47813;DHT22;34221;45.296;9.516;2023-06-10T00:04:17;22.90;90.60
47813;DHT22;34221;45.296;9.516;2023-06-10T00:04:32;22.90;90.50
47813;DHT22;34221;45.296;9.516;2023-06-10T00:04:47;22.90;90.50
47813;DHT22;34221;45.296;9.516;2023-06-10T00:05:02;22.90;90.60
47813;DHT22;34221;45.296;9.516;2023-06-10T00:05:18;22.90;90.90
47813;DHT22;34221;45.296;9.516;2023-06-10T00:05:36;22.90;91.00
47813;DHT22;34221;45.296;9.516;2023-06-10T00:05:53;22.80;91.10
47813;DHT22;34221;45.296;9.516;2023-06-10T00:06:08;22.80;91.00
47813;DHT22;34221;45.296;9.516;2023-06-10T00:06:22;22.90;91.10
47813;DHT22;34221;45.296;9.516;2023-06-10T00:06:38;22.80;91.00
47813;DHT22;34221;45.296;9.516;2023-06-10T00:06:54;22.80;91.00
47813;DHT22;34221;45.296;9.516;2023-06-10T00:07:09;22.80;91.10
47813;DHT22;34221;45.296;9.516;2023-06-10T00:07:24;22.80;91.20
47813;DHT22;34221;45.296;9.516;2023-06-10T00:07:39;22.80;91.30
47813;DHT22;34221;45.296;9.516;2023-06-10T00:07:56;22.80;91.40
47813;DHT22;34221;45.296;9.516;2023-06-10T00:08:11;22.80;91.20
47813;DHT22;34221;45.296;9.516;2023-06-10T00:08:26;22.80;91.10
47813;DHT22;34221;45.296;9.516;2023-06-10T00:08:41;22.80;91.20
47813;DHT22;34221;45.296;9.516;2023-06-10T00:08:56;22.80;91.30
47813;DHT22;34221;45.296;9.516;2023-06-10T00:09:11;22.80;91.30
47813;DHT22;34221;45.296;9.516;2023-06-10T00:09:28;22.80;91.30
47813;DHT22;34221;45.296;9.516;2023-06-10T00:09:43;22.80;91.20
47813;DHT22;34221;45.296;9.516;2023-06-10T00:09:59;22.80;91.20
47813;DHT22;34221;45.296;9.516;2023-06-10T00:10:14;22.80;91.30
47813;DHT22;34221;45.296;9.516;2023-06-10T00:10:30;22.80;91.30
47813;DHT22;34221;45.296;9.516;2023-06-10T00:10:45;22.80;91.30
47813;DHT22;34221;45.296;9.516;2023-06-10T00:11:00;22.80;91.30
47813;DHT22;34221;45.296;9.516;2023-06-10T00:11:15;22.80;91.30
47813;DHT22;34221;45.296;9.516;2023-06-10T00:11:31;22.80;91.20
47813;DHT22;34221;45.296;9.516;2023-06-10T00:11:47;22.80;91.20
47813;DHT22;34221;45.296;9.516;2023-06-10T00:12:04;22.80;91.40
47813;DHT22;34221;45.296;9.516;2023-06-10T00:12:19;22.80;91.30
47813;DHT22;34221;45.296;9.516;2023-06-10T00:12:34;22.80;91.30
47813;DHT22;34221;45.296;9.516;2023-06-10T00:12:51;22.80;91.20
47813;DHT22;34221;45.296;9.516;2023-06-10T00:13:07;22.80;91.20
47813;DHT22;34221;45.296;9.516;2023-06-10T00:13:25;22.80;91.40
47813;DHT22;34221;45.296;9.516;2023-06-10T00:13:41;22.80;91.40
47813;DHT22;34221;45.296;9.516;2023-06-10T00:13:55;22.80;91.60
47813;DHT22;34221;45.296;9.516;2023-06-10T00:14:10;22.80;91.60
47813;DHT22;34221;45.296;9.516;2023-06-10T00:14:25;22.80;91.70
47813;DHT22;34221;45.296;9.516;2023-06-10T00:14:40;22.80;91.60
47813;DHT22;34221;45.296;9.516;2023-06-10T00:14:55;22.80;91.40
47813;DHT22;34221;45.296;9.516;2023-06-10T00:15:10;22.80;91.30
47813;DHT22;34221;45.296;9.516;2023-06-10T00:15:26;22.80;91.40
47813;DHT22;34221;45.296;9.516;2023-06-10T00:15:41;22.80;91.40
47813;DHT22;34221;45.296;9.516;2023-06-10T00:15:56;22.80;91.40
47813;DHT22;34221;45.296;9.516;2023-06-10T00:16:11;22.80;91.30
47813;DHT22;34221;45.296;9.516;2023-06-10T00:16:45;22.80;91.40
47813;DHT22;34221;45.296;9.516;2023-06-10T00:16:59;22.80;91.40
47813;DHT22;34221;45.296;9.516;2023-06-10T00:17:14;22.80;91.50
47813;DHT22;34221;45.296;9.516;2023-06-10T00:17:30;22.80;91.50
47813;DHT22;34221;45.296;9.516;2023-06-10T00:17:45;22.80;91.50
47813;DHT22;34221;45.296;9.516;2023-06-10T00:18:00;22.80;91.60
47813;DHT22;34221;45.296;9.516;2023-06-10T00:18:17;22.80;91.50
47813;DHT22;34221;45.296;9.516;2023-06-10T00:18:32;22.80;91.70
47813;DHT22;34221;45.296;9.516;2023-06-10T00:18:47;22.70;91.70
47813;DHT22;34221;45.296;9.516;2023-06-10T00:19:04;22.70;91.80
47813;DHT22;34221;45.296;9.516;2023-06-10T00:19:19;22.70;91.80
47813;DHT22;34221;45.296;9.516;2023-06-10T00:19:34;22.70;91.80
47813;DHT22;34221;45.296;9.516;2023-06-10T00:19:49;22.70;91.70
47813;DHT22;34221;45.296;9.516;2023-06-10T00:20:09;22.80;91.80
47813;DHT22;34221;45.296;9.516;2023-06-10T00:20:28;22.70;91.70
47813;DHT22;34221;45.296;9.516;2023-06-10T00:20:43;22.80;91.80
47813;DHT22;34221;45.296;9.516;2023-06-10T00:20:58;22.80;91.60
47813;DHT22;34221;45.296;9.516;2023-06-10T00:21:18;22.70;91.50
47813;DHT22;34221;45.296;9.516;2023-06-10T00:21:34;22.80;91.70
47813;DHT22;34221;45.296;9.516;2023-06-10T00:21:52;22.80;91.80
47813;DHT22;34221;45.296;9.516;2023-06-10T00:22:07;22.80;91.60
47813;DHT22;34221;45.296;9.516;2023-06-10T00:22:24;22.80;91.50
47813;DHT22;34221;45.296;9.516;2023-06-10T00:22:43;22.80;91.60
47813;DHT22;34221;45.296;9.516;2023-06-10T00:23:01;22.80;91.50
47813;DHT22;34221;45.296;9.516;2023-06-10T00:23:16;22.80;91.50
47813;DHT22;34221;45.296;9.516;2023-06-10T00:23:31;22.80;91.60
47813;DHT22;34221;45.296;9.516;2023-06-10T00:23:46;22.80;91.60
47813;DHT22;34221;45.296;9.516;2023-06-10T00:24:21;22.80;91.50
47813;DHT22;34221;45.296;9.516;2023-06-10T00:24:36;22.80;91.60
47813;DHT22;34221;45.296;9.516;2023-06-10T00:24:55;22.90;91.50
47813;DHT22;34221;45.296;9.516;2023-06-10T00:25:13;22.90;91.60
47813;DHT22;34221;45.296;9.516;2023-06-10T00:25:28;22.90;91.50
47813;DHT22;34221;45.296;9.516;2023-06-10T00:25:43;22.90;91.60
47813;DHT22;34221;45.296;9.516;2023-06-10T00:25:58;22.90;91.60
47813;DHT22;34221;45.296;9.516;2023-06-10T00:26:14;22.90;91.60
47813;DHT22;34221;45.296;9.516;2023-06-10T00:26:32;22.90;91.60
47813;DHT22;34221;45.296;9.516;2023-06-10T00:26:48;22.90;91.60
47813;DHT22;34221;45.296;9.516;2023-06-10T00:27:03;22.90;91.60
47813;DHT22;34221;45.296;9.516;2023-06-10T00:27:18;22.80;91.60
47813;DHT22;34221;45.296;9.516;2023-06-10T00:27:33;22.90;91.60
47813;DHT22;34221;45.296;9.516;2023-06-10T00:27:49;22.90;91.60
47813;DHT22;34221;45.296;9.516;2023-06-10T00:28:04;22.90;91.60
47813;DHT22;34221;45.296;9.516;2023-06-10T00:28:19;22.80;91.70
47813;DHT22;34221;45.296;9.516;2023-06-10T00:28:34;22.80;91.70
47813;DHT22;34221;45.296;9.516;2023-06-10T00:28:49;22.80;91.60
47813;DHT22;34221;45.296;9.516;2023-06-10T00:29:05;22.80;91.80
47813;DHT22;34221;45.296;9.516;2023-06-10T00:29:20;22.80;91.70
47813;DHT22;34221;45.296;9.516;2023-06-10T00:29:35;22.80;91.90
47813;DHT22;34221;45.296;9.516;2023-06-10T00:29:50;22.80;91.80
47813;DHT22;34221;45.296;9.516;2023-06-10T00:30:05;22.80;91.80
47813;DHT22;34221;45.296;9.516;2023-06-10T00:30:21;22.80;91.80
47813;DHT22;34221;45.296;9.516;2023-06-10T00:30:36;22.80;91.80
47813;DHT22;34221;45.296;9.516;2023-06-10T00:30:51;22.70;91.90
47813;DHT22;34221;45.296;9.516;2023-06-10T00:31:06;22.80;91.70
47813;DHT22;34221;45.296;9.516;2023-06-10T00:31:21;22.70;92.00
47813;DHT22;34221;45.296;9.516;2023-06-10T00:31:37;22.70;91.60
47813;DHT22;34221;45.296;9.516;2023-06-10T00:31:55;22.80;91.70
47813;DHT22;34221;45.296;9.516;2023-06-10T00:32:12;22.80;91.60
47813;DHT22;34221;45.296;9.516;2023-06-10T00:32:26;22.80;91.70
47813;DHT22;34221;45.296;9.516;2023-06-10T00:32:41;22.80;91.70
47813;DHT22;34221;45.296;9.516;2023-06-10T00:32:56;22.80;91.70
47813;DHT22;34221;45.296;9.516;2023-06-10T00:33:11;22.80;91.60
47813;DHT22;34221;45.296;9.516;2023-06-10T00:33:26;22.80;91.70
47813;DHT22;34221;45.296;9.516;2023-06-10T00:33:41;22.70;91.60
47813;DHT22;34221;45.296;9.516;2023-06-10T00:33:56;22.70;91.60
47813;DHT22;34221;45.296;9.516;2023-06-10T00:34:12;22.80;91.60
47813;DHT22;34221;45.296;9.516;2023-06-10T00:34:27;22.70;91.60
47813;DHT22;34221;45.296;9.516;2023-06-10T00:34:42;22.70;91.60
47813;DHT22;34221;45.296;9.516;2023-06-10T00:34:57;22.70;91.60
47813;DHT22;34221;45.296;9.516;2023-06-10T00:35:12;22.70;91.50
47813;DHT22;34221;45.296;9.516;2023-06-10T00:35:27;22.70;91.60
47813;DHT22;34221;45.296;9.516;2023-06-10T00:35:42;22.70;91.50
47813;DHT22;34221;45.296;9.516;2023-06-10T00:35:57;22.70;91.40
47813;DHT22;34221;45.296;9.516;2023-06-10T00:36:12;22.70;91.40
47813;DHT22;34221;45.296;9.516;2023-06-10T00:36:27;22.70;91.40
47813;DHT22;34221;45.296;9.516;2023-06-10T00:36:41;22.70;91.40
47813;DHT22;34221;45.296;9.516;2023-06-10T00:36:57;22.70;91.40
47813;DHT22;34221;45.296;9.516;2023-06-10T00:37:12;22.70;91.40
47813;DHT22;34221;45.296;9.516;2023-06-10T00:37:28;22.70;91.40
47813;DHT22;34221;45.296;9.516;2023-06-10T00:37:44;22.70;91.40
47813;DHT22;34221;45.296;9.516;2023-06-10T00:38:00;22.70;91.50
47813;DHT22;34221;45.296;9.516;2023-06-10T00:38:14;22.70;91.40
47813;DHT22;34221;45.296;9.516;2023-06-10T00:38:31;22.70;91.30
47813;DHT22;34221;45.296;9.516;2023-06-10T00:38:46;22.70;91.40
47813;DHT22;34221;45.296;9.516;2023-06-10T00:39:02;22.70;91.30
47813;DHT22;34221;45.296;9.516;2023-06-10T00:39:18;22.70;91.30
47813;DHT22;34221;45.296;9.516;2023-06-10T00:39:33;22.70;91.40
47813;DHT22;34221;45.296;9.516;2023-06-10T00:39:48;22.70;91.40
47813;DHT22;34221;45.296;9.516;2023-06-10T00:40:04;22.70;91.40
47813;DHT22;34221;45.296;9.516;2023-06-10T00:40:20;22.70;91.30
47813;DHT22;34221;45.296;9.516;2023-06-10T00:40:41;22.70;91.30
47813;DHT22;34221;45.296;9.516;2023-06-10T00:40:56;22.70;91.30
47813;DHT22;34221;45.296;9.516;2023-06-10T00:41:13;22.70;91.30
47813;DHT22;34221;45.296;9.516;2023-06-10T00:41:28;22.70;91.30
47813;DHT22;34221;45.296;9.516;2023-06-10T00:41:43;22.70;91.30
47813;DHT22;34221;45.296;9.516;2023-06-10T00:41:59;22.70;91.30
47813;DHT22;34221;45.296;9.516;2023-06-10T00:42:15;22.70;91.30
47813;DHT22;34221;45.296;9.516;2023-06-10T00:42:31;22.70;91.30
47813;DHT22;34221;45.296;9.516;2023-06-10T00:43:21;22.70;91.30
47813;DHT22;34221;45.296;9.516;2023-06-10T00:43:36;22.60;91.20
47813;DHT22;34221;45.296;9.516;2023-06-10T00:43:51;22.60;91.20
47813;DHT22;34221;45.296;9.516;2023-06-10T00:44:07;22.60;91.30
47813;DHT22;34221;45.296;9.516;2023-06-10T00:44:21;22.60;91.30
47813;DHT22;34221;45.296;9.516;2023-06-10T00:44:36;22.60;91.40
47813;DHT22;34221;45.296;9.516;2023-06-10T00:44:51;22.60;91.40
47813;DHT22;34221;45.296;9.516;2023-06-10T00:45:06;22.60;91.30
47813;DHT22;34221;45.296;9.516;2023-06-10T00:45:24;22.50;91.30
47813;DHT22;34221;45.296;9.516;2023-06-10T00:45:39;22.60;91.40
47813;DHT22;34221;45.296;9.516;2023-06-10T00:45:54;22.50;91.50
47813;DHT22;34221;45.296;9.516;2023-06-10T00:46:10;22.50;91.50
47813;DHT22;34221;45.296;9.516;2023-06-10T00:46:26;22.50;91.50
47813;DHT22;34221;45.296;9.516;2023-06-10T00:46:44;22.50;91.50
47813;DHT22;34221;45.296;9.516;2023-06-10T00:46:59;22.50;91.70
47813;DHT22;34221;45.296;9.516;2023-06-10T00:47:14;22.50;91.40
47813;DHT22;34221;45.296;9.516;2023-06-10T00:47:30;22.50;91.40
47813;DHT22;34221;45.296;9.516;2023-06-10T00:47:45;22.50;91.40
47813;DHT22;34221;45.296;9.516;2023-06-10T00:48:01;22.50;91.60
47813;DHT22;34221;45.296;9.516;2023-06-10T00:48:17;22.50;91.50
47813;DHT22;34221;45.296;9.516;2023-06-10T00:48:32;22.50;91.50
47813;DHT22;34221;45.296;9.516;2023-06-10T00:48:47;22.50;91.50
47813;DHT22;34221;45.296;9.516;2023-06-10T00:49:03;22.50;91.50
47813;DHT22;34221;45.296;9.516;2023-06-10T00:49:18;22.50;91.50
47813;DHT22;34221;45.296;9.516;2023-06-10T00:49:34;22.50;91.50
47813;DHT22;34221;45.296;9.516;2023-06-10T00:49:50;22.50;91.50
47813;DHT22;34221;45.296;9.516;2023-06-10T00:50:06;22.50;91.50
47813;DHT22;34221;45.296;9.516;2023-06-10T00:50:21;22.50;91.40
47813;DHT22;34221;45.296;9.516;2023-06-10T00:50:36;22.50;91.40
47813;DHT22;34221;45.296;9.516;2023-06-10T00:50:53;22.50;91.40
47813;DHT22;34221;45.296;9.516;2023-06-10T00:51:10;22.50;91.50
47813;DHT22;34221;45.296;9.516;2023-06-10T00:51:26;22.50;91.40
47813;DHT22;34221;45.296;9.516;2023-06-10T00:51:41;22.50;91.50
47813;DHT22;34221;45.296;9.516;2023-06-10T00:51:57;22.50;91.40
47813;DHT22;34221;45.296;9.516;2023-06-10T00:52:12;22.50;91.40
47813;DHT22;34221;45.296;9.516;2023-06-10T00:52:30;22.50;91.40
47813;DHT22;34221;45.296;9.516;2023-06-10T00:52:45;22.50;91.40
47813;DHT22;34221;45.296;9.516;2023-06-10T00:53:02;22.50;91.40
47813;DHT22;34221;45.296;9.516;2023-06-10T00:53:19;22.50;91.40
47813;DHT22;34221;45.296;9.516;2023-06-10T00:53:37;22.50;91.40
47813;DHT22;34221;45.296;9.516;2023-06-10T00:53:54;22.50;91.40
47813;DHT22;34221;45.296;9.516;2023-06-10T00:54:09;22.50;91.40
47813;DHT22;34221;45.296;9.516;2023-06-10T00:54:24;22.50;91.40
47813;DHT22;34221;45.296;9.516;2023-06-10T00:54:41;22.50;91.40
47813;DHT22;34221;45.296;9.516;2023-06-10T00:54:57;22.50;91.50
47813;DHT22;34221;45.296;9.516;2023-06-10T00:55:16;22.50;91.40
47813;DHT22;34221;45.296;9.516;2023-06-10T00:55:32;22.50;91.30
47813;DHT22;34221;45.296;9.516;2023-06-10T00:56:06;22.50;91.20
47813;DHT22;34221;45.296;9.516;2023-06-10T00:56:22;22.50;91.20
47813;DHT22;34221;45.296;9.516;2023-06-10T00:56:36;22.50;91.30
47813;DHT22;34221;45.296;9.516;2023-06-10T00:56:52;22.50;91.20
47813;DHT22;34221;45.296;9.516;2023-06-10T00:57:08;22.40;91.20
47813;DHT22;34221;45.296;9.516;2023-06-10T00:57:23;22.50;91.30
47813;DHT22;34221;45.296;9.516;2023-06-10T00:57:38;22.50;91.20
47813;DHT22;34221;45.296;9.516;2023-06-10T00:57:53;22.50;91.10
47813;DHT22;34221;45.296;9.516;2023-06-10T00:58:09;22.50;91.10
47813;DHT22;34221;45.296;9.516;2023-06-10T00:58:24;22.50;91.20
47813;DHT22;34221;45.296;9.516;2023-06-10T00:58:40;22.50;91.10
47813;DHT22;34221;45.296;9.516;2023-06-10T00:58:55;22.50;91.10
47813;DHT22;34221;45.296;9.516;2023-06-10T00:59:10;22.50;91.20
47813;DHT22;34221;45.296;9.516;2023-06-10T00:59:25;22.50;91.20
47813;DHT22;34221;45.296;9.516;2023-06-10T00:59:41;22.40;91.20
47813;DHT22;34221;45.296;9.516;2023-06-10T00:59:58;22.40;91.20
47813;DHT22;34221;45.296;9.516;2023-06-10T01:00:15;22.40;91.20
47813;DHT22;34221;45.296;9.516;2023-06-10T01:00:30;22.40;91.20
47813;DHT22;34221;45.296;9.516;2023-06-10T01:00:45;22.40;91.20
47813;DHT22;34221;45.296;9.516;2023-06-10T01:01:01;22.40;91.20
47813;DHT22;34221;45.296;9.516;2023-06-10T01:01:16;22.40;91.20
47813;DHT22;34221;45.296;9.516;2023-06-10T01:01:31;22.40;91.20
47813;DHT22;34221;45.296;9.516;2023-06-10T01:01:49;22.40;91.20
47813;DHT22;34221;45.296;9.516;2023-06-10T01:02:06;22.40;91.20
47813;DHT22;34221;45.296;9.516;2023-06-10T01:02:22;22.40;91.20
47813;DHT22;34221;45.296;9.516;2023-06-10T01:02:36;22.40;91.20
47813;DHT22;34221;45.296;9.516;2023-06-10T01:02:52;22.40;91.20
47813;DHT22;34221;45.296;9.516;2023-06-10T01:03:08;22.40;91.30
47813;DHT22;34221;45.296;9.516;2023-06-10T01:03:23;22.40;91.40
47813;DHT22;34221;45.296;9.516;2023-06-10T01:03:39;22.40;91.40
47813;DHT22;34221;45.296;9.516;2023-06-10T01:03:54;22.40;91.40
47813;DHT22;34221;45.296;9.516;2023-06-10T01:04:10;22.40;91.40
47813;DHT22;34221;45.296;9.516;2023-06-10T01:04:27;22.40;91.40
47813;DHT22;34221;45.296;9.516;2023-06-10T01:04:42;22.40;91.30
47813;DHT22;34221;45.296;9.516;2023-06-10T01:04:56;22.30;91.30
47813;DHT22;34221;45.296;9.516;2023-06-10T01:05:13;22.30;91.30
47813;DHT22;34221;45.296;9.516;2023-06-10T01:05:28;22.30;91.40
47813;DHT22;34221;45.296;9.516;2023-06-10T01:05:45;22.30;91.40
47813;DHT22;34221;45.296;9.516;2023-06-10T01:06:13;22.30;91.40
47813;DHT22;34221;45.296;9.516;2023-06-10T01:06:57;22.30;91.50
47813;DHT22;34221;45.296;9.516;2023-06-10T01:07:26;22.30;91.50
47813;DHT22;34221;45.296;9.516;2023-06-10T01:08:23;22.20;91.60
47813;DHT22;34221;45.296;9.516;2023-06-10T01:09:02;22.20;91.50
47813;DHT22;34221;45.296;9.516;2023-06-10T01:10:04;22.20;91.50
47813;DHT22;34221;45.296;9.516;2023-06-10T01:11:09;22.20;91.40
47813;DHT22;34221;45.296;9.516;2023-06-10T01:11:42;22.20;91.40
47813;DHT22;34221;45.296;9.516;2023-06-10T01:12:59;22.20;91.40
47813;DHT22;34221;45.296;9.516;2023-06-10T01:13:23;22.20;91.50
47813;DHT22;34221;45.296;9.516;2023-06-10T01:13:41;22.20;91.40
47813;DHT22;34221;45.296;9.516;2023-06-10T01:13:58;22.20;91.40
47813;DHT22;34221;45.296;9.516;2023-06-10T01:14:14;22.20;91.40
47813;DHT22;34221;45.296;9.516;2023-06-10T01:14:29;22.20;91.40
47813;DHT22;34221;45.296;9.516;2023-06-10T01:14:46;22.20;91.40
47813;DHT22;34221;45.296;9.516;2023-06-10T01:15:04;22.20;91.40
47813;DHT22;34221;45.296;9.516;2023-06-10T01:15:19;22.20;91.40
47813;DHT22;34221;45.296;9.516;2023-06-10T01:15:37;22.20;91.40
47813;DHT22;34221;45.296;9.516;2023-06-10T01:15:52;22.20;91.40
47813;DHT22;34221;45.296;9.516;2023-06-10T01:16:08;22.20;91.40
47813;DHT22;34221;45.296;9.516;2023-06-10T01:16:23;22.20;91.40
47813;DHT22;34221;45.296;9.516;2023-06-10T01:16:40;22.10;91.30
47813;DHT22;34221;45.296;9.516;2023-06-10T01:16:55;22.10;91.40
47813;DHT22;34221;45.296;9.516;2023-06-10T01:17:12;22.20;91.40
47813;DHT22;34221;45.296;9.516;2023-06-10T01:17:28;22.10;91.30
47813;DHT22;34221;45.296;9.516;2023-06-10T01:18:01;22.10;91.30
47813;DHT22;34221;45.296;9.516;2023-06-10T01:18:21;22.10;91.30
47813;DHT22;34221;45.296;9.516;2023-06-10T01:18:36;22.10;91.20
47813;DHT22;34221;45.296;9.516;2023-06-10T01:18:53;22.10;91.50
47813;DHT22;34221;45.296;9.516;2023-06-10T01:19:09;22.10;91.60
47813;DHT22;34221;45.296;9.516;2023-06-10T01:19:24;22.00;91.50
47813;DHT22;34221;45.296;9.516;2023-06-10T01:19:39;22.00;91.50
47813;DHT22;34221;45.296;9.516;2023-06-10T01:19:56;22.00;91.80
47813;DHT22;34221;45.296;9.516;2023-06-10T01:20:11;22.10;91.50
47813;DHT22;34221;45.296;9.516;2023-06-10T01:20:28;22.10;91.50
47813;DHT22;34221;45.296;9.516;2023-06-10T01:20:45;22.10;91.50
47813;DHT22;34221;45.296;9.516;2023-06-10T01:21:02;22.10;91.50
47813;DHT22;34221;45.296;9.516;2023-06-10T01:21:22;22.00;91.50
47813;DHT22;34221;45.296;9.516;2023-06-10T01:21:41;22.00;91.50
47813;DHT22;34221;45.296;9.516;2023-06-10T01:21:57;22.00;91.40
47813;DHT22;34221;45.296;9.516;2023-06-10T01:22:15;22.00;91.40
47813;DHT22;34221;45.296;9.516;2023-06-10T01:22:31;22.00;91.40
47813;DHT22;34221;45.296;9.516;2023-06-10T01:22:51;22.00;91.30
47813;DHT22;34221;45.296;9.516;2023-06-10T01:23:10;22.00;91.30
47813;DHT22;34221;45.296;9.516;2023-06-10T01:23:26;22.00;91.20
47813;DHT22;34221;45.296;9.516;2023-06-10T01:23:41;22.00;91.20
47813;DHT22;34221;45.296;9.516;2023-06-10T01:23:56;22.00;91.30
47813;DHT22;34221;45.296;9.516;2023-06-10T01:24:12;21.90;91.20
47813;DHT22;34221;45.296;9.516;2023-06-10T01:24:28;21.90;91.30
47813;DHT22;34221;45.296;9.516;2023-06-10T01:24:43;21.90;91.30
47813;DHT22;34221;45.296;9.516;2023-06-10T01:24:58;21.90;91.30
47813;DHT22;34221;45.296;9.516;2023-06-10T01:25:13;21.90;91.30
47813;DHT22;34221;45.296;9.516;2023-06-10T01:26:02;21.90;91.30
47813;DHT22;34221;45.296;9.516;2023-06-10T01:26:26;21.90;91.60
47813;DHT22;34221;45.296;9.516;2023-06-10T01:26:45;22.00;91.20
47813;DHT22;34221;45.296;9.516;2023-06-10T01:27:13;22.00;91.30
47813;DHT22;34221;45.296;9.516;2023-06-10T01:27:31;22.00;91.20
47813;DHT22;34221;45.296;9.516;2023-06-10T01:27:50;22.00;91.20
47813;DHT22;34221;45.296;9.516;2023-06-10T01:29:05;22.00;91.20
47813;DHT22;34221;45.296;9.516;2023-06-10T01:29:33;22.00;91.00
47813;DHT22;34221;45.296;9.516;2023-06-10T01:30:08;22.00;91.10
47813;DHT22;34221;45.296;9.516;2023-06-10T01:30:32;21.90;91.00
47813;DHT22;34221;45.296;9.516;2023-06-10T01:31:54;21.90;91.10
47813;DHT22;34221;45.296;9.516;2023-06-10T01:32:18;21.90;91.10
47813;DHT22;34221;45.296;9.516;2023-06-10T01:32:41;22.00;91.10
47813;DHT22;34221;45.296;9.516;2023-06-10T01:32:59;21.90;91.00
47813;DHT22;34221;45.296;9.516;2023-06-10T01:33:18;22.00;91.00
47813;DHT22;34221;45.296;9.516;2023-06-10T01:33:43;21.90;90.90
47813;DHT22;34221;45.296;9.516;2023-06-10T01:34:01;22.00;90.90
47813;DHT22;34221;45.296;9.516;2023-06-10T01:34:18;22.00;90.80
47813;DHT22;34221;45.296;9.516;2023-06-10T01:34:34;22.00;90.70
47813;DHT22;34221;45.296;9.516;2023-06-10T01:34:51;22.00;90.80
47813;DHT22;34221;45.296;9.516;2023-06-10T01:35:08;22.00;90.90
47813;DHT22;34221;45.296;9.516;2023-06-10T01:35:25;22.00;90.90
47813;DHT22;34221;45.296;9.516;2023-06-10T01:35:43;22.00;90.80
47813;DHT22;34221;45.296;9.516;2023-06-10T01:36:02;22.00;90.80
47813;DHT22;34221;45.296;9.516;2023-06-10T01:36:19;22.00;90.60
47813;DHT22;34221;45.296;9.516;2023-06-10T01:36:35;22.00;90.50
47813;DHT22;34221;45.296;9.516;2023-06-10T01:36:52;22.00;90.60
47813;DHT22;34221;45.296;9.516;2023-06-10T01:37:09;22.00;90.70
47813;DHT22;34221;45.296;9.516;2023-06-10T01:37:28;22.00;90.60
47813;DHT22;34221;45.296;9.516;2023-06-10T01:37:46;22.00;90.50
47813;DHT22;34221;45.296;9.516;2023-06-10T01:38:02;22.00;90.60
47813;DHT22;34221;45.296;9.516;2023-06-10T01:38:18;22.00;90.50
47813;DHT22;34221;45.296;9.516;2023-06-10T01:38:42;22.00;90.50
47813;DHT22;34221;45.296;9.516;2023-06-10T01:38:59;22.00;90.40
47813;DHT22;34221;45.296;9.516;2023-06-10T01:39:21;22.00;90.40
47813;DHT22;34221;45.296;9.516;2023-06-10T01:39:38;22.00;90.40
47813;DHT22;34221;45.296;9.516;2023-06-10T01:39:57;22.00;90.20
47813;DHT22;34221;45.296;9.516;2023-06-10T01:40:14;22.00;90.40
47813;DHT22;34221;45.296;9.516;2023-06-10T01:40:30;22.00;90.40
47813;DHT22;34221;45.296;9.516;2023-06-10T01:40:46;22.00;90.60
47813;DHT22;34221;45.296;9.516;2023-06-10T01:41:03;22.00;90.30
47813;DHT22;34221;45.296;9.516;2023-06-10T01:41:19;22.00;90.30
47813;DHT22;34221;45.296;9.516;2023-06-10T01:41:36;22.00;90.40
47813;DHT22;34221;45.296;9.516;2023-06-10T01:42:11;22.00;90.30
47813;DHT22;34221;45.296;9.516;2023-06-10T01:42:27;22.00;90.20
47813;DHT22;34221;45.296;9.516;2023-06-10T01:42:42;22.00;90.20
47813;DHT22;34221;45.296;9.516;2023-06-10T01:42:58;22.00;90.30
47813;DHT22;34221;45.296;9.516;2023-06-10T01:43:13;22.00;90.20
47813;DHT22;34221;45.296;9.516;2023-06-10T01:43:28;22.00;90.10
47813;DHT22;34221;45.296;9.516;2023-06-10T01:43:44;21.90;90.20
47813;DHT22;34221;45.296;9.516;2023-06-10T01:43:59;21.90;90.30
47813;DHT22;34221;45.296;9.516;2023-06-10T01:44:19;21.90;90.40
47813;DHT22;34221;45.296;9.516;2023-06-10T01:44:34;21.90;90.40
47813;DHT22;34221;45.296;9.516;2023-06-10T01:44:49;21.90;90.40
47813;DHT22;34221;45.296;9.516;2023-06-10T01:45:08;21.90;90.40
47813;DHT22;34221;45.296;9.516;2023-06-10T01:45:23;21.80;90.40
47813;DHT22;34221;45.296;9.516;2023-06-10T01:45:38;21.90;90.40
47813;DHT22;34221;45.296;9.516;2023-06-10T01:45:53;21.90;90.50
47813;DHT22;34221;45.296;9.516;2023-06-10T01:46:08;21.80;90.50
47813;DHT22;34221;45.296;9.516;2023-06-10T01:46:23;21.90;90.50
47813;DHT22;34221;45.296;9.516;2023-06-10T01:46:38;21.90;90.50
47813;DHT22;34221;45.296;9.516;2023-06-10T01:46:52;21.90;90.50
47813;DHT22;34221;45.296;9.516;2023-06-10T01:47:08;21.90;90.50
47813;DHT22;34221;45.296;9.516;2023-06-10T01:47:23;21.90;90.50
47813;DHT22;34221;45.296;9.516;2023-06-10T01:47:38;21.90;90.40
47813;DHT22;34221;45.296;9.516;2023-06-10T01:47:53;21.90;90.40
47813;DHT22;34221;45.296;9.516;2023-06-10T01:48:08;21.80;90.50
47813;DHT22;34221;45.296;9.516;2023-06-10T01:48:23;21.90;90.60
47813;DHT22;34221;45.296;9.516;2023-06-10T01:48:38;21.80;90.60
47813;DHT22;34221;45.296;9.516;2023-06-10T01:48:53;21.80;90.60
47813;DHT22;34221;45.296;9.516;2023-06-10T01:49:08;21.80;90.60
47813;DHT22;34221;45.296;9.516;2023-06-10T01:49:23;21.90;90.60
47813;DHT22;34221;45.296;9.516;2023-06-10T01:49:39;21.80;90.60
47813;DHT22;34221;45.296;9.516;2023-06-10T01:49:56;21.90;90.50
47813;DHT22;34221;45.296;9.516;2023-06-10T01:50:11;21.90;90.50
47813;DHT22;34221;45.296;9.516;2023-06-10T01:50:25;21.90;90.50
47813;DHT22;34221;45.296;9.516;2023-06-10T01:50:40;21.80;90.50
47813;DHT22;34221;45.296;9.516;2023-06-10T01:50:56;21.80;90.50
47813;DHT22;34221;45.296;9.516;2023-06-10T01:51:10;21.90;90.50
47813;DHT22;34221;45.296;9.516;2023-06-10T01:51:25;21.80;90.60
47813;DHT22;34221;45.296;9.516;2023-06-10T01:51:40;21.90;90.60